Terminal Aerodrome Forecast
Issued by NWS Jackson, KY

Home | Current Version | Previous Version | Text Only | Print | Product List | Glossary On
Versions: 1 2 3 4 5 6 7 8 9 10 11 12 13 14 15 16 17 18 19 20 21
349
FTUS43 KJKL 170930 AAA
TAFLOZ
TAF AMD
KLOZ 170930Z 1710/1806 VRB05KT 5SM SHRA BKN040
      TEMPO 1710/1712 2SM SHRA BR BKN025
     FM171200 19009KT 4SM -SHRA BR VCTS OVC025CB
     FM171600 21012G20KT P6SM -SHRA VCTS OVC015CB
     FM172200 23009KT 5SM -SHRA OVC010=

USA.gov is the U.S. government's official web portal to all federal, state and local government web resources and services.